Terminal Aerodrome Forecast
Issued by NWS Mt. Holly, NJ

Home | Current Version | Previous Version | Text Only | Print | Product List | Glossary On
Versions: 1 2 3 4 5 6 7 8 9 10 11 12 13 14 15 16 17 18 19 20 21
000
FTAK31 PANC 251140
TAFABE
TAF
PABE 251140Z 2512/2612 17015KT P6SM VCSH OVC025
      TEMPO 2512/2516 DZ BKN010
     FM252100 20011G20KT P6SM OVC020
     FM260300 20011KT P6SM SCT020 OVC050
     FM260900 19005KT P6SM VCFG SCT100=

USA.gov is the U.S. government's official web portal to all federal, state and local government web resources and services.